sensor_id;sensor_type;location;lat;lon;timestamp;temperature;humidity
58447;DHT22;44240;51.840;7.258;2022-08-04T00:00:22;25.60;81.80
58447;DHT22;44240;51.840;7.258;2022-08-04T00:06:16;25.60;82.10
58447;DHT22;44240;51.840;7.258;2022-08-04T00:08:45;25.50;82.20
58447;DHT22;44240;51.840;7.258;2022-08-04T00:11:25;25.50;82.20
58447;DHT22;44240;51.840;7.258;2022-08-04T00:14:00;25.50;82.30
58447;DHT22;44240;51.840;7.258;2022-08-04T00:16:28;25.40;82.60
58447;DHT22;44240;51.840;7.258;2022-08-04T00:18:58;25.40;82.50
58447;DHT22;44240;51.840;7.258;2022-08-04T00:21:26;25.40;82.70
58447;DHT22;44240;51.840;7.258;2022-08-04T00:23:53;25.40;82.70
58447;DHT22;44240;51.840;7.258;2022-08-04T00:26:19;25.40;83.00
58447;DHT22;44240;51.840;7.258;2022-08-04T00:28:46;25.30;83.00
58447;DHT22;44240;51.840;7.258;2022-08-04T00:31:14;25.30;83.30
58447;DHT22;44240;51.840;7.258;2022-08-04T00:33:43;25.30;83.30
58447;DHT22;44240;51.840;7.258;2022-08-04T00:36:11;25.30;83.40
58447;DHT22;44240;51.840;7.258;2022-08-04T00:38:40;25.20;83.50
58447;DHT22;44240;51.840;7.258;2022-08-04T00:43:47;25.20;83.90
58447;DHT22;44240;51.840;7.258;2022-08-04T00:55:35;25.10;84.40
58447;DHT22;44240;51.840;7.258;2022-08-04T00:58:20;25.10;84.40
58447;DHT22;44240;51.840;7.258;2022-08-04T01:06:28;25.10;84.80
58447;DHT22;44240;51.840;7.258;2022-08-04T01:09:16;25.10;84.90
58447;DHT22;44240;51.840;7.258;2022-08-04T01:17:04;25.00;85.40
58447;DHT22;44240;51.840;7.258;2022-08-04T01:25:19;24.90;85.70
58447;DHT22;44240;51.840;7.258;2022-08-04T01:30:32;24.90;86.10
58447;DHT22;44240;51.840;7.258;2022-08-04T01:33:12;24.80;86.20
58447;DHT22;44240;51.840;7.258;2022-08-04T01:35:50;24.80;86.20
58447;DHT22;44240;51.840;7.258;2022-08-04T01:41:09;24.80;86.40
58447;DHT22;44240;51.840;7.258;2022-08-04T01:43:42;24.80;86.40
58447;DHT22;44240;51.840;7.258;2022-08-04T01:46:11;24.70;86.60
58447;DHT22;44240;51.840;7.258;2022-08-04T01:48:38;24.70;86.80
58447;DHT22;44240;51.840;7.258;2022-08-04T01:51:06;24.70;86.90
58447;DHT22;44240;51.840;7.258;2022-08-04T01:53:35;24.70;87.10
58447;DHT22;44240;51.840;7.258;2022-08-04T01:56:01;24.60;87.20
58447;DHT22;44240;51.840;7.258;2022-08-04T01:58:32;24.60;87.20
58447;DHT22;44240;51.840;7.258;2022-08-04T02:01:09;24.60;87.20
58447;DHT22;44240;51.840;7.258;2022-08-04T02:03:38;24.60;87.50
58447;DHT22;44240;51.840;7.258;2022-08-04T02:13:53;24.50;87.90
58447;DHT22;44240;51.840;7.258;2022-08-04T02:21:24;24.40;88.20
58447;DHT22;44240;51.840;7.258;2022-08-04T02:23:53;24.40;88.40
58447;DHT22;44240;51.840;7.258;2022-08-04T02:26:24;24.40;88.50
58447;DHT22;44240;51.840;7.258;2022-08-04T02:31:35;24.40;88.80
58447;DHT22;44240;51.840;7.258;2022-08-04T02:34:16;24.30;89.60
58447;DHT22;44240;51.840;7.258;2022-08-04T02:36:47;24.30;89.20
58447;DHT22;44240;51.840;7.258;2022-08-04T02:39:18;24.30;89.30
58447;DHT22;44240;51.840;7.258;2022-08-04T02:41:46;24.30;89.50
58447;DHT22;44240;51.840;7.258;2022-08-04T02:44:12;24.20;89.50
58447;DHT22;44240;51.840;7.258;2022-08-04T02:46:40;24.20;89.60
58447;DHT22;44240;51.840;7.258;2022-08-04T02:49:07;24.20;89.90
58447;DHT22;44240;51.840;7.258;2022-08-04T02:51:36;24.20;89.90
58447;DHT22;44240;51.840;7.258;2022-08-04T02:54:04;24.20;90.00
58447;DHT22;44240;51.840;7.258;2022-08-04T02:56:31;24.20;90.00
58447;DHT22;44240;51.840;7.258;2022-08-04T02:59:03;24.20;90.10
58447;DHT22;44240;51.840;7.258;2022-08-04T03:01:29;24.10;90.10
58447;DHT22;44240;51.840;7.258;2022-08-04T03:04:25;24.10;90.10
58447;DHT22;44240;51.840;7.258;2022-08-04T03:21:18;23.90;90.60
58447;DHT22;44240;51.840;7.258;2022-08-04T03:26:28;23.90;90.70
58447;DHT22;44240;51.840;7.258;2022-08-04T03:54:32;23.70;91.50
58447;DHT22;44240;51.840;7.258;2022-08-04T03:57:30;23.70;91.60
58447;DHT22;44240;51.840;7.258;2022-08-04T04:00:08;23.70;91.60
58447;DHT22;44240;51.840;7.258;2022-08-04T04:07:58;23.70;91.80
58447;DHT22;44240;51.840;7.258;2022-08-04T04:10:32;23.70;91.90
58447;DHT22;44240;51.840;7.258;2022-08-04T04:24:11;23.60;92.10
58447;DHT22;44240;51.840;7.258;2022-08-04T04:30:06;23.60;92.20
58447;DHT22;44240;51.840;7.258;2022-08-04T04:32:45;23.60;92.20
58447;DHT22;44240;51.840;7.258;2022-08-04T04:49:28;23.50;92.70
58447;DHT22;44240;51.840;7.258;2022-08-04T04:52:20;23.50;92.80
58447;DHT22;44240;51.840;7.258;2022-08-04T04:55:04;23.50;92.90
58447;DHT22;44240;51.840;7.258;2022-08-04T04:57:35;23.50;93.00
58447;DHT22;44240;51.840;7.258;2022-08-04T05:00:07;23.60;93.10
58447;DHT22;44240;51.840;7.258;2022-08-04T05:05:16;23.70;93.30
58447;DHT22;44240;51.840;7.258;2022-08-04T05:16:06;23.90;93.50
58447;DHT22;44240;51.840;7.258;2022-08-04T05:18:37;23.90;93.80
58447;DHT22;44240;51.840;7.258;2022-08-04T05:21:17;24.00;93.60
58447;DHT22;44240;51.840;7.258;2022-08-04T05:23:48;24.10;93.50
58447;DHT22;44240;51.840;7.258;2022-08-04T05:26:17;24.10;93.30
58447;DHT22;44240;51.840;7.258;2022-08-04T05:28:50;24.20;93.10
58447;DHT22;44240;51.840;7.258;2022-08-04T05:31:33;24.20;93.10
58447;DHT22;44240;51.840;7.258;2022-08-04T05:34:08;24.30;93.10
58447;DHT22;44240;51.840;7.258;2022-08-04T05:36:39;24.30;93.10
58447;DHT22;44240;51.840;7.258;2022-08-04T05:39:20;24.40;93.50
58447;DHT22;44240;51.840;7.258;2022-08-04T05:41:48;24.40;93.30
58447;DHT22;44240;51.840;7.258;2022-08-04T05:44:16;24.50;93.20
58447;DHT22;44240;51.840;7.258;2022-08-04T05:46:43;24.50;93.00
58447;DHT22;44240;51.840;7.258;2022-08-04T05:49:10;24.60;92.90
58447;DHT22;44240;51.840;7.258;2022-08-04T05:51:36;24.70;93.00
58447;DHT22;44240;51.840;7.258;2022-08-04T05:54:02;24.70;92.90
58447;DHT22;44240;51.840;7.258;2022-08-04T05:56:30;24.80;93.00
58447;DHT22;44240;51.840;7.258;2022-08-04T05:58:59;24.80;93.00
58447;DHT22;44240;51.840;7.258;2022-08-04T06:01:25;24.80;92.90
58447;DHT22;44240;51.840;7.258;2022-08-04T06:03:54;24.90;93.00
58447;DHT22;44240;51.840;7.258;2022-08-04T06:06:20;25.00;93.30
58447;DHT22;44240;51.840;7.258;2022-08-04T06:08:47;25.00;93.10
58447;DHT22;44240;51.840;7.258;2022-08-04T06:11:13;25.10;93.10
58447;DHT22;44240;51.840;7.258;2022-08-04T06:14:04;25.20;93.20
58447;DHT22;44240;51.840;7.258;2022-08-04T06:16:36;25.20;93.10
58447;DHT22;44240;51.840;7.258;2022-08-04T06:19:07;25.20;93.10
58447;DHT22;44240;51.840;7.258;2022-08-04T06:21:34;25.30;93.20
58447;DHT22;44240;51.840;7.258;2022-08-04T06:24:01;25.30;93.30
58447;DHT22;44240;51.840;7.258;2022-08-04T06:26:29;25.30;93.50
58447;DHT22;44240;51.840;7.258;2022-08-04T06:28:57;25.40;93.70
58447;DHT22;44240;51.840;7.258;2022-08-04T06:31:25;25.30;93.80
58447;DHT22;44240;51.840;7.258;2022-08-04T06:34:07;25.40;93.90
58447;DHT22;44240;51.840;7.258;2022-08-04T06:36:34;25.40;94.00
58447;DHT22;44240;51.840;7.258;2022-08-04T06:39:06;25.50;94.10
58447;DHT22;44240;51.840;7.258;2022-08-04T06:41:32;25.50;94.10
58447;DHT22;44240;51.840;7.258;2022-08-04T06:44:00;25.50;94.00
58447;DHT22;44240;51.840;7.258;2022-08-04T06:46:27;25.60;94.00
58447;DHT22;44240;51.840;7.258;2022-08-04T06:48:54;25.70;94.00
58447;DHT22;44240;51.840;7.258;2022-08-04T06:51:21;25.70;93.70
58447;DHT22;44240;51.840;7.258;2022-08-04T06:53:47;25.80;93.40
58447;DHT22;44240;51.840;7.258;2022-08-04T06:56:15;25.90;93.40
58447;DHT22;44240;51.840;7.258;2022-08-04T06:58:43;26.00;93.20
58447;DHT22;44240;51.840;7.258;2022-08-04T07:01:09;26.20;93.00
58447;DHT22;44240;51.840;7.258;2022-08-04T07:03:36;26.30;92.80
58447;DHT22;44240;51.840;7.258;2022-08-04T07:06:02;26.40;92.60
58447;DHT22;44240;51.840;7.258;2022-08-04T07:08:28;26.50;92.80
58447;DHT22;44240;51.840;7.258;2022-08-04T07:10:56;26.60;92.40
58447;DHT22;44240;51.840;7.258;2022-08-04T07:13:21;26.70;92.40
58447;DHT22;44240;51.840;7.258;2022-08-04T07:15:47;26.80;92.40
58447;DHT22;44240;51.840;7.258;2022-08-04T07:18:14;26.90;92.30
58447;DHT22;44240;51.840;7.258;2022-08-04T07:20:42;27.00;92.30
58447;DHT22;44240;51.840;7.258;2022-08-04T07:23:08;27.00;92.10
58447;DHT22;44240;51.840;7.258;2022-08-04T07:25:35;27.10;92.10
58447;DHT22;44240;51.840;7.258;2022-08-04T07:28:01;27.30;92.00
58447;DHT22;44240;51.840;7.258;2022-08-04T07:30:27;27.40;91.90
58447;DHT22;44240;51.840;7.258;2022-08-04T07:32:54;27.50;91.20
58447;DHT22;44240;51.840;7.258;2022-08-04T07:35:22;27.50;90.70
58447;DHT22;44240;51.840;7.258;2022-08-04T07:37:48;27.60;90.20
58447;DHT22;44240;51.840;7.258;2022-08-04T07:40:13;27.70;89.90
58447;DHT22;44240;51.840;7.258;2022-08-04T07:42:39;27.70;88.90
58447;DHT22;44240;51.840;7.258;2022-08-04T07:45:06;27.60;89.40
58447;DHT22;44240;51.840;7.258;2022-08-04T07:47:32;27.60;90.00
58447;DHT22;44240;51.840;7.258;2022-08-04T07:49:58;27.70;89.60
58447;DHT22;44240;51.840;7.258;2022-08-04T07:52:26;27.70;89.70
58447;DHT22;44240;51.840;7.258;2022-08-04T07:54:52;27.70;90.00
58447;DHT22;44240;51.840;7.258;2022-08-04T07:57:18;27.70;89.50
58447;DHT22;44240;51.840;7.258;2022-08-04T07:59:45;27.70;89.60
58447;DHT22;44240;51.840;7.258;2022-08-04T08:02:13;27.70;89.80
58447;DHT22;44240;51.840;7.258;2022-08-04T08:04:40;27.70;89.40
58447;DHT22;44240;51.840;7.258;2022-08-04T08:07:06;27.80;89.10
58447;DHT22;44240;51.840;7.258;2022-08-04T08:09:32;27.80;89.50
58447;DHT22;44240;51.840;7.258;2022-08-04T08:11:58;27.90;88.90
58447;DHT22;44240;51.840;7.258;2022-08-04T08:14:26;28.10;89.20
58447;DHT22;44240;51.840;7.258;2022-08-04T08:16:52;28.10;87.90
58447;DHT22;44240;51.840;7.258;2022-08-04T08:19:18;28.30;88.40
58447;DHT22;44240;51.840;7.258;2022-08-04T08:21:47;28.40;87.40
58447;DHT22;44240;51.840;7.258;2022-08-04T08:24:14;28.60;87.50
58447;DHT22;44240;51.840;7.258;2022-08-04T08:26:40;28.70;86.20
58447;DHT22;44240;51.840;7.258;2022-08-04T08:29:07;28.90;85.90
58447;DHT22;44240;51.840;7.258;2022-08-04T08:31:33;29.10;85.40
58447;DHT22;44240;51.840;7.258;2022-08-04T08:33:59;29.20;84.80
58447;DHT22;44240;51.840;7.258;2022-08-04T08:36:38;29.30;84.60
58447;DHT22;44240;51.840;7.258;2022-08-04T08:51:37;29.60;83.00
58447;DHT22;44240;51.840;7.258;2022-08-04T08:57:16;30.00;81.00
58447;DHT22;44240;51.840;7.258;2022-08-04T09:00:02;30.10;81.50
58447;DHT22;44240;51.840;7.258;2022-08-04T09:11:19;30.90;79.60
58447;DHT22;44240;51.840;7.258;2022-08-04T09:14:04;31.20;79.90
58447;DHT22;44240;51.840;7.258;2022-08-04T09:22:19;31.90;78.20
58447;DHT22;44240;51.840;7.258;2022-08-04T09:24:51;32.00;77.90
58447;DHT22;44240;51.840;7.258;2022-08-04T09:27:20;32.20;76.30
58447;DHT22;44240;51.840;7.258;2022-08-04T09:32:31;32.40;75.50
58447;DHT22;44240;51.840;7.258;2022-08-04T09:40:46;32.50;73.30
58447;DHT22;44240;51.840;7.258;2022-08-04T09:43:34;32.60;73.70
58447;DHT22;44240;51.840;7.258;2022-08-04T09:46:22;32.70;72.70
58447;DHT22;44240;51.840;7.258;2022-08-04T09:49:06;32.80;73.00
58447;DHT22;44240;51.840;7.258;2022-08-04T09:57:23;33.00;70.90
58447;DHT22;44240;51.840;7.258;2022-08-04T10:00:03;33.10;71.30
58447;DHT22;44240;51.840;7.258;2022-08-04T10:02:38;33.20;70.90
58447;DHT22;44240;51.840;7.258;2022-08-04T10:05:10;33.30;70.60
58447;DHT22;44240;51.840;7.258;2022-08-04T10:27:26;32.90;69.20
58447;DHT22;44240;51.840;7.258;2022-08-04T10:29:57;32.90;69.40
58447;DHT22;44240;51.840;7.258;2022-08-04T10:32:45;32.90;69.70
58447;DHT22;44240;51.840;7.258;2022-08-04T10:35:22;32.90;70.00
58447;DHT22;44240;51.840;7.258;2022-08-04T10:40:24;32.90;68.40
58447;DHT22;44240;51.840;7.258;2022-08-04T10:43:11;32.90;67.70
58447;DHT22;44240;51.840;7.258;2022-08-04T10:45:49;32.80;67.80
58447;DHT22;44240;51.840;7.258;2022-08-04T10:53:30;32.80;67.30
58447;DHT22;44240;51.840;7.258;2022-08-04T10:56:08;32.90;66.10
58447;DHT22;44240;51.840;7.258;2022-08-04T10:58:45;33.00;64.30
58447;DHT22;44240;51.840;7.258;2022-08-04T11:01:22;33.10;64.50
58447;DHT22;44240;51.840;7.258;2022-08-04T11:03:59;33.10;64.40
58447;DHT22;44240;51.840;7.258;2022-08-04T11:06:26;33.10;64.40
58447;DHT22;44240;51.840;7.258;2022-08-04T11:08:56;33.10;64.10
58447;DHT22;44240;51.840;7.258;2022-08-04T11:11:35;33.20;63.60
58447;DHT22;44240;51.840;7.258;2022-08-04T11:14:03;33.30;63.50
58447;DHT22;44240;51.840;7.258;2022-08-04T11:16:45;33.30;62.40
58447;DHT22;44240;51.840;7.258;2022-08-04T11:22:09;33.30;64.00
58447;DHT22;44240;51.840;7.258;2022-08-04T11:27:27;33.50;64.20
58447;DHT22;44240;51.840;7.258;2022-08-04T11:35:28;33.60;63.30
58447;DHT22;44240;51.840;7.258;2022-08-04T11:38:06;33.60;63.00
58447;DHT22;44240;51.840;7.258;2022-08-04T11:40:41;33.70;63.00
58447;DHT22;44240;51.840;7.258;2022-08-04T11:43:21;33.70;61.70
58447;DHT22;44240;51.840;7.258;2022-08-04T11:45:57;33.70;62.00
58447;DHT22;44240;51.840;7.258;2022-08-04T11:51:37;33.70;61.00
58447;DHT22;44240;51.840;7.258;2022-08-04T11:54:04;33.70;60.40
58447;DHT22;44240;51.840;7.258;2022-08-04T11:56:30;33.70;60.60
58447;DHT22;44240;51.840;7.258;2022-08-04T11:58:57;33.60;59.70
58447;DHT22;44240;51.840;7.258;2022-08-04T12:04:04;33.40;60.70
58447;DHT22;44240;51.840;7.258;2022-08-04T12:06:44;33.30;60.50
58447;DHT22;44240;51.840;7.258;2022-08-04T12:09:41;33.20;61.30
58447;DHT22;44240;51.840;7.258;2022-08-04T12:12:19;33.10;61.60
58447;DHT22;44240;51.840;7.258;2022-08-04T12:14:57;33.10;61.90
58447;DHT22;44240;51.840;7.258;2022-08-04T12:17:34;33.10;62.40
58447;DHT22;44240;51.840;7.258;2022-08-04T12:20:03;32.90;61.80
58447;DHT22;44240;51.840;7.258;2022-08-04T12:22:36;32.90;62.40
58447;DHT22;44240;51.840;7.258;2022-08-04T12:25:07;32.80;62.80
58447;DHT22;44240;51.840;7.258;2022-08-04T12:27:44;32.70;62.60
58447;DHT22;44240;51.840;7.258;2022-08-04T12:30:12;32.50;62.90
58447;DHT22;44240;51.840;7.258;2022-08-04T12:32:42;32.30;63.20
58447;DHT22;44240;51.840;7.258;2022-08-04T12:35:18;32.20;62.90
58447;DHT22;44240;51.840;7.258;2022-08-04T12:38:01;32.00;63.20
58447;DHT22;44240;51.840;7.258;2022-08-04T12:43:28;31.80;64.10
58447;DHT22;44240;51.840;7.258;2022-08-04T12:46:02;31.70;64.60
58447;DHT22;44240;51.840;7.258;2022-08-04T12:48:31;31.60;65.40
58447;DHT22;44240;51.840;7.258;2022-08-04T12:50:59;31.60;66.10
58447;DHT22;44240;51.840;7.258;2022-08-04T12:53:29;31.70;66.70
58447;DHT22;44240;51.840;7.258;2022-08-04T12:55:57;31.70;68.10
58447;DHT22;44240;51.840;7.258;2022-08-04T12:58:25;31.60;69.10
58447;DHT22;44240;51.840;7.258;2022-08-04T13:01:04;31.40;68.70
58447;DHT22;44240;51.840;7.258;2022-08-04T13:03:37;31.30;68.40
58447;DHT22;44240;51.840;7.258;2022-08-04T13:06:06;31.10;69.00
58447;DHT22;44240;51.840;7.258;2022-08-04T13:08:36;31.00;68.90
58447;DHT22;44240;51.840;7.258;2022-08-04T13:11:02;30.90;69.20
58447;DHT22;44240;51.840;7.258;2022-08-04T13:13:33;30.80;70.00
58447;DHT22;44240;51.840;7.258;2022-08-04T13:15:59;30.70;70.40
58447;DHT22;44240;51.840;7.258;2022-08-04T13:18:30;30.70;70.50
58447;DHT22;44240;51.840;7.258;2022-08-04T13:21:14;30.70;70.20
58447;DHT22;44240;51.840;7.258;2022-08-04T13:23:42;30.60;70.80
58447;DHT22;44240;51.840;7.258;2022-08-04T13:26:13;30.60;71.20
58447;DHT22;44240;51.840;7.258;2022-08-04T13:28:42;30.60;71.30
58447;DHT22;44240;51.840;7.258;2022-08-04T13:31:13;30.60;71.80
58447;DHT22;44240;51.840;7.258;2022-08-04T13:33:41;30.50;72.00
58447;DHT22;44240;51.840;7.258;2022-08-04T13:36:08;30.50;72.40
58447;DHT22;44240;51.840;7.258;2022-08-04T13:38:36;30.50;72.50
58447;DHT22;44240;51.840;7.258;2022-08-04T13:41:04;30.60;72.50
58447;DHT22;44240;51.840;7.258;2022-08-04T13:43:45;30.60;72.80
58447;DHT22;44240;51.840;7.258;2022-08-04T13:46:16;30.60;72.60
58447;DHT22;44240;51.840;7.258;2022-08-04T13:48:43;30.70;72.90
58447;DHT22;44240;51.840;7.258;2022-08-04T13:51:10;30.70;72.90
58447;DHT22;44240;51.840;7.258;2022-08-04T13:53:38;30.70;72.60
58447;DHT22;44240;51.840;7.258;2022-08-04T13:56:06;30.70;73.40
58447;DHT22;44240;51.840;7.258;2022-08-04T13:58:34;30.70;73.60
58447;DHT22;44240;51.840;7.258;2022-08-04T14:01:17;30.70;73.70
58447;DHT22;44240;51.840;7.258;2022-08-04T14:06:33;30.70;73.20
58447;DHT22;44240;51.840;7.258;2022-08-04T14:09:02;30.80;73.10
58447;DHT22;44240;51.840;7.258;2022-08-04T14:11:43;30.90;72.60
58447;DHT22;44240;51.840;7.258;2022-08-04T14:14:27;31.10;72.70
58447;DHT22;44240;51.840;7.258;2022-08-04T14:17:05;31.30;71.80
58447;DHT22;44240;51.840;7.258;2022-08-04T14:19:57;31.50;71.80
58447;DHT22;44240;51.840;7.258;2022-08-04T14:25:09;32.00;71.90
58447;DHT22;44240;51.840;7.258;2022-08-04T14:27:53;32.20;70.30
58447;DHT22;44240;51.840;7.258;2022-08-04T14:30:21;32.50;70.00
58447;DHT22;44240;51.840;7.258;2022-08-04T14:33:13;32.60;69.20
58447;DHT22;44240;51.840;7.258;2022-08-04T14:35:39;32.80;69.50
58447;DHT22;44240;51.840;7.258;2022-08-04T14:38:07;32.80;68.70
58447;DHT22;44240;51.840;7.258;2022-08-04T14:40:35;32.80;67.50
58447;DHT22;44240;51.840;7.258;2022-08-04T14:43:01;32.70;67.60
58447;DHT22;44240;51.840;7.258;2022-08-04T14:45:32;32.70;67.00
58447;DHT22;44240;51.840;7.258;2022-08-04T14:48:00;32.80;67.10
58447;DHT22;44240;51.840;7.258;2022-08-04T14:50:34;33.00;66.80
58447;DHT22;44240;51.840;7.258;2022-08-04T14:53:20;33.10;67.00
58447;DHT22;44240;51.840;7.258;2022-08-04T14:55:48;33.30;67.00
58447;DHT22;44240;51.840;7.258;2022-08-04T14:58:20;33.30;66.60
58447;DHT22;44240;51.840;7.258;2022-08-04T15:00:47;33.30;65.90
58447;DHT22;44240;51.840;7.258;2022-08-04T15:03:13;33.30;66.50
58447;DHT22;44240;51.840;7.258;2022-08-04T15:05:40;33.40;65.80
58447;DHT22;44240;51.840;7.258;2022-08-04T15:08:07;33.40;65.60
58447;DHT22;44240;51.840;7.258;2022-08-04T15:10:33;33.30;65.50
58447;DHT22;44240;51.840;7.258;2022-08-04T15:13:01;33.30;65.60
58447;DHT22;44240;51.840;7.258;2022-08-04T15:15:27;33.10;65.70
58447;DHT22;44240;51.840;7.258;2022-08-04T15:17:53;33.00;66.10
58447;DHT22;44240;51.840;7.258;2022-08-04T15:20:20;32.90;66.20
58447;DHT22;44240;51.840;7.258;2022-08-04T15:22:45;32.70;66.20
58447;DHT22;44240;51.840;7.258;2022-08-04T15:25:11;32.50;66.90
58447;DHT22;44240;51.840;7.258;2022-08-04T15:27:38;32.30;67.50
58447;DHT22;44240;51.840;7.258;2022-08-04T15:30:09;32.20;68.00
58447;DHT22;44240;51.840;7.258;2022-08-04T15:32:42;32.00;68.50
58447;DHT22;44240;51.840;7.258;2022-08-04T15:35:10;31.90;69.00
58447;DHT22;44240;51.840;7.258;2022-08-04T15:38:13;31.80;69.50
58447;DHT22;44240;51.840;7.258;2022-08-04T15:40:47;31.60;70.10
58447;DHT22;44240;51.840;7.258;2022-08-04T15:43:49;31.40;70.70
58447;DHT22;44240;51.840;7.258;2022-08-04T15:49:20;31.10;71.60
58447;DHT22;44240;51.840;7.258;2022-08-04T15:51:46;31.00;71.90
58447;DHT22;44240;51.840;7.258;2022-08-04T15:56:45;30.90;72.50
58447;DHT22;44240;51.840;7.258;2022-08-04T15:59:11;30.70;72.40
58447;DHT22;44240;51.840;7.258;2022-08-04T16:01:37;30.70;72.60
58447;DHT22;44240;51.840;7.258;2022-08-04T16:04:23;30.60;72.60
58447;DHT22;44240;51.840;7.258;2022-08-04T16:06:49;30.60;72.60
58447;DHT22;44240;51.840;7.258;2022-08-04T16:09:24;30.50;72.60
58447;DHT22;44240;51.840;7.258;2022-08-04T16:11:51;30.60;73.10
58447;DHT22;44240;51.840;7.258;2022-08-04T16:14:21;30.60;73.20
58447;DHT22;44240;51.840;7.258;2022-08-04T16:16:54;30.60;73.00
58447;DHT22;44240;51.840;7.258;2022-08-04T16:19:45;30.60;73.10
58447;DHT22;44240;51.840;7.258;2022-08-04T16:22:34;30.60;72.90
58447;DHT22;44240;51.840;7.258;2022-08-04T16:25:00;30.50;73.10
58447;DHT22;44240;51.840;7.258;2022-08-04T16:27:37;30.30;73.50
58447;DHT22;44240;51.840;7.258;2022-08-04T16:30:05;30.20;74.00
58447;DHT22;44240;51.840;7.258;2022-08-04T16:32:50;30.10;74.70
58447;DHT22;44240;51.840;7.258;2022-08-04T16:35:25;30.00;75.00
58447;DHT22;44240;51.840;7.258;2022-08-04T16:38:14;29.90;75.20
58447;DHT22;44240;51.840;7.258;2022-08-04T16:40:41;29.90;75.50
58447;DHT22;44240;51.840;7.258;2022-08-04T16:43:15;29.90;75.90
58447;DHT22;44240;51.840;7.258;2022-08-04T16:45:49;30.00;76.10
58447;DHT22;44240;51.840;7.258;2022-08-04T16:48:17;29.90;76.20
58447;DHT22;44240;51.840;7.258;2022-08-04T16:50:51;29.90;76.40
58447;DHT22;44240;51.840;7.258;2022-08-04T16:53:18;29.90;77.00
58447;DHT22;44240;51.840;7.258;2022-08-04T16:55:48;29.80;76.10
58447;DHT22;44240;51.840;7.258;2022-08-04T16:58:15;29.70;75.70
58447;DHT22;44240;51.840;7.258;2022-08-04T17:00:41;29.80;75.60
58447;DHT22;44240;51.840;7.258;2022-08-04T17:03:08;29.80;75.30
58447;DHT22;44240;51.840;7.258;2022-08-04T17:05:34;29.90;75.20
58447;DHT22;44240;51.840;7.258;2022-08-04T17:08:02;29.90;75.00
58447;DHT22;44240;51.840;7.258;2022-08-04T17:10:35;29.90;75.10
58447;DHT22;44240;51.840;7.258;2022-08-04T17:13:18;29.80;75.30
58447;DHT22;44240;51.840;7.258;2022-08-04T17:15:47;29.90;74.90
58447;DHT22;44240;51.840;7.258;2022-08-04T17:18:15;29.90;74.90
58447;DHT22;44240;51.840;7.258;2022-08-04T17:20:41;30.00;75.10
58447;DHT22;44240;51.840;7.258;2022-08-04T17:23:36;30.00;75.40
58447;DHT22;44240;51.840;7.258;2022-08-04T17:26:06;29.90;75.50
58447;DHT22;44240;51.840;7.258;2022-08-04T17:28:33;29.80;75.80
58447;DHT22;44240;51.840;7.258;2022-08-04T17:31:00;29.60;76.20
58447;DHT22;44240;51.840;7.258;2022-08-04T17:33:26;29.60;76.40
58447;DHT22;44240;51.840;7.258;2022-08-04T17:35:56;29.50;76.50
58447;DHT22;44240;51.840;7.258;2022-08-04T17:38:28;29.40;76.80
58447;DHT22;44240;51.840;7.258;2022-08-04T17:40:59;29.30;76.70
58447;DHT22;44240;51.840;7.258;2022-08-04T17:43:46;29.20;77.00
58447;DHT22;44240;51.840;7.258;2022-08-04T17:54:03;29.00;77.60
58447;DHT22;44240;51.840;7.258;2022-08-04T17:56:46;29.00;77.90
58447;DHT22;44240;51.840;7.258;2022-08-04T18:07:38;28.60;78.80
58447;DHT22;44240;51.840;7.258;2022-08-04T18:10:04;28.50;79.00
58447;DHT22;44240;51.840;7.258;2022-08-04T18:12:35;28.50;79.40
58447;DHT22;44240;51.840;7.258;2022-08-04T18:15:02;28.50;79.40
58447;DHT22;44240;51.840;7.258;2022-08-04T18:17:42;28.30;79.40
58447;DHT22;44240;51.840;7.258;2022-08-04T18:20:15;28.40;79.70
58447;DHT22;44240;51.840;7.258;2022-08-04T18:22:44;28.30;80.20
58447;DHT22;44240;51.840;7.258;2022-08-04T18:25:12;28.30;80.10
58447;DHT22;44240;51.840;7.258;2022-08-04T18:27:53;28.30;80.40
58447;DHT22;44240;51.840;7.258;2022-08-04T18:30:23;28.30;80.80
58447;DHT22;44240;51.840;7.258;2022-08-04T18:32:51;28.20;81.10
58447;DHT22;44240;51.840;7.258;2022-08-04T18:35:18;28.20;81.40
58447;DHT22;44240;51.840;7.258;2022-08-04T18:37:44;28.10;81.80
58447;DHT22;44240;51.840;7.258;2022-08-04T18:40:10;28.10;82.40
58447;DHT22;44240;51.840;7.258;2022-08-04T18:42:38;28.10;82.90
58447;DHT22;44240;51.840;7.258;2022-08-04T18:45:04;28.00;83.20
58447;DHT22;44240;51.840;7.258;2022-08-04T18:47:30;28.00;83.50
58447;DHT22;44240;51.840;7.258;2022-08-04T18:49:56;27.90;83.90
58447;DHT22;44240;51.840;7.258;2022-08-04T18:52:22;27.80;83.50
58447;DHT22;44240;51.840;7.258;2022-08-04T18:54:48;27.80;84.20
58447;DHT22;44240;51.840;7.258;2022-08-04T18:57:19;27.70;84.50
58447;DHT22;44240;51.840;7.258;2022-08-04T18:59:45;27.70;84.60
58447;DHT22;44240;51.840;7.258;2022-08-04T19:02:10;27.60;84.80
58447;DHT22;44240;51.840;7.258;2022-08-04T19:04:36;27.60;85.20
58447;DHT22;44240;51.840;7.258;2022-08-04T19:07:02;27.50;85.20
58447;DHT22;44240;51.840;7.258;2022-08-04T19:09:28;27.50;85.40
58447;DHT22;44240;51.840;7.258;2022-08-04T19:11:53;27.50;86.00
58447;DHT22;44240;51.840;7.258;2022-08-04T19:14:19;27.40;86.30
58447;DHT22;44240;51.840;7.258;2022-08-04T19:16:45;27.30;86.40
58447;DHT22;44240;51.840;7.258;2022-08-04T19:19:12;27.30;86.60
58447;DHT22;44240;51.840;7.258;2022-08-04T19:21:39;27.20;86.90
58447;DHT22;44240;51.840;7.258;2022-08-04T19:24:05;27.20;87.00
58447;DHT22;44240;51.840;7.258;2022-08-04T19:26:31;27.10;87.10
58447;DHT22;44240;51.840;7.258;2022-08-04T19:28:57;27.00;86.90
58447;DHT22;44240;51.840;7.258;2022-08-04T19:31:22;27.00;86.80
58447;DHT22;44240;51.840;7.258;2022-08-04T19:33:48;27.00;86.70
58447;DHT22;44240;51.840;7.258;2022-08-04T19:36:14;26.90;86.50
58447;DHT22;44240;51.840;7.258;2022-08-04T19:38:39;26.90;86.70
58447;DHT22;44240;51.840;7.258;2022-08-04T19:41:06;26.90;86.80
58447;DHT22;44240;51.840;7.258;2022-08-04T19:43:32;26.90;86.70
58447;DHT22;44240;51.840;7.258;2022-08-04T19:45:58;26.80;86.60
58447;DHT22;44240;51.840;7.258;2022-08-04T19:48:24;26.80;86.60
58447;DHT22;44240;51.840;7.258;2022-08-04T19:50:49;26.70;86.30
58447;DHT22;44240;51.840;7.258;2022-08-04T19:53:15;26.70;86.30
58447;DHT22;44240;51.840;7.258;2022-08-04T19:55:42;26.70;86.70
58447;DHT22;44240;51.840;7.258;2022-08-04T19:58:08;26.60;86.70
58447;DHT22;44240;51.840;7.258;2022-08-04T20:00:35;26.60;86.50
58447;DHT22;44240;51.840;7.258;2022-08-04T20:03:01;26.50;86.40
58447;DHT22;44240;51.840;7.258;2022-08-04T20:05:27;26.50;86.40
58447;DHT22;44240;51.840;7.258;2022-08-04T20:07:53;26.40;86.50
58447;DHT22;44240;51.840;7.258;2022-08-04T20:10:19;26.40;86.70
58447;DHT22;44240;51.840;7.258;2022-08-04T20:12:45;26.40;86.70